Airfield :
LOGIN :

Register | Disclaimer

   EN    FR    IT 

 










Legend :    VFR   Marginal VFR   IFR   Intensive IFR   Very Intensive IFR
Visi :
Ceiling :
>= 8 km
>= 3000ft
5 to 8 km
1000 to 3000 ft
1500m to 5 km
500 to 1000 ft
800 to 1500m
200 to 500 ft
< 800m
< 200 ft
Symbols :   Thunderstorms  Fog  Heavy snow  Heavy precipitations  Wind > 20 kt
SIGMETs :     Misc.  Thunderstorms  Icing  Turbulence  Mountain Waves  Volcanic Ashes






- Airport Elevation : 353 ft
- IATA code : LIN


LIML - Milano Linate

CURRENT METAR :
  • 070450Z AUTO 11007KT 070V140 9999 BKN048/// 23/15 Q1013

EXPIRED METARs :
  • 070420Z AUTO 03003KT 360V060 9999 FEW041/// BKN056/// 22/09 Q1012
  • 070350Z AUTO VRB02KT 9999 FEW058/// 20/10 Q1011
  • 070320Z AUTO 19003KT 130V250 9999 FEW051/// 21/07 Q1011
  • 070250Z AUTO VRB02KT 9999 FEW048/// 20/07 Q1010
  • 070220Z AUTO 35005KT 9999 NCD 22/05 Q1009

TAF TAF LIML
Valid from the 07 at 00:00 until the 08 at 00:00 UTC


062300Z 0700/0724 VRB05KT 9999 SCT030
TEMPO 0706/0715 10010KT



MET'MAP, your aeronautical weather chart ! - Copyright ORBIFLY December 2007 - Disclaimer

ORBIFLY MET'MAP TEAM :

Programming & Development : Alexandra Zaïnal
Concept & original design : Baudouin d'Aumeries
Assistance for programming : Marc-Olivier Méhu
Technical & hardware support : Manuel Goepfert

Contact : metmap@orbifly.com




SOURCES & CREDITS :

   NOAA